Time;durP1;ratioP1;P1;durP2;ratioP2;P2;SDS_P1;SDS_P2;PMS_P1;PMS_P2;Temp;Humidity;BMP_temperature;BMP_pressure;BME280_temperature;BME280_humidity;BME280_pressure;Samples;Min_cycle;Max_cycle;Signal;HPM_P1;HPM_P2
2023/10/23 09:10:22;;;;;;;3.30;0.87;;;11.80;99.90;;;;;;4935473;23;20244;-69
2023/10/23 09:12:56;;;;;;;5.57;1.30;;;11.70;99.90;;;;;;4916019;29;20720;-69
2023/10/23 09:15:24;;;;;;;2.87;0.80;;;11.80;99.90;;;;;;4918911;29;20214;-69
2023/10/23 09:17:52;;;;;;;3.53;0.70;;;11.70;99.90;;;;;;4918680;29;20573;-69
2023/10/23 09:20:23;;;;;;;4.10;0.83;;;11.70;99.90;;;;;;4918806;29;20326;-69
2023/10/23 09:22:52;;;;;;;3.57;1.43;;;12.00;99.90;;;;;;4918428;29;20221;-69
2023/10/23 09:25:19;;;;;;;0.70;0.53;;;12.40;99.90;;;;;;4918539;29;20703;-69
2023/10/23 09:27:46;;;;;;;3.17;1.10;;;12.60;99.90;;;;;;4918577;29;20250;-69
2023/10/23 09:30:15;;;;;;;1.80;0.77;;;12.60;99.90;;;;;;4917329;29;20312;-68
2023/10/23 09:32:43;;;;;;;2.60;0.87;;;12.50;99.90;;;;;;4918346;29;20220;-69
2023/10/23 09:35:12;;;;;;;1.67;1.10;;;12.70;99.90;;;;;;4918406;29;20296;-68
2023/10/23 09:37:39;;;;;;;2.20;0.77;;;12.60;99.90;;;;;;4918298;29;20601;-70
2023/10/23 09:40:08;;;;;;;7.07;0.87;;;12.70;99.90;;;;;;4918197;29;20553;-70
2023/10/23 09:42:36;;;;;;;2.53;0.83;;;12.70;99.90;;;;;;4918404;29;20213;-69
2023/10/23 09:45:04;;;;;;;2.40;0.60;;;12.40;99.90;;;;;;4917751;29;20336;-69
2023/10/23 09:47:34;;;;;;;3.87;0.50;;;12.50;99.90;;;;;;4917808;29;20731;-69
2023/10/23 09:50:03;;;;;;;3.30;0.60;;;12.50;99.90;;;;;;4917583;29;20216;-69
2023/10/23 09:52:33;;;;;;;2.13;0.83;;;12.50;99.90;;;;;;4918406;29;20206;-70
2023/10/23 09:55:03;;;;;;;1.00;0.60;;;12.60;99.90;;;;;;4918097;29;20210;-71
2023/10/23 09:57:35;;;;;;;2.50;0.70;;;12.80;99.90;;;;;;4917375;29;20229;-71
2023/10/23 10:00:05;;;;;;;5.07;0.70;;;12.90;99.90;;;;;;4917940;29;20210;-71
2023/10/23 10:02:36;;;;;;;1.53;0.70;;;13.10;99.90;;;;;;4917729;29;20249;-71
2023/10/23 10:05:06;;;;;;;1.00;0.60;;;13.10;99.90;;;;;;4918011;29;20237;-71
2023/10/23 10:07:47;;;;;;;3.33;0.90;;;13.10;99.90;;;;;;4917828;29;20261;-72
2023/10/23 10:10:15;;;;;;;2.23;0.83;;;13.00;99.90;;;;;;4917507;29;20252;-70
2023/10/23 10:12:43;;;;;;;1.77;0.70;;;12.90;99.90;;;;;;4917431;29;20256;-70
2023/10/23 10:15:10;;;;;;;5.47;0.90;;;12.90;99.90;;;;;;4917244;29;20629;-71
2023/10/23 10:17:40;;;;;;;1.93;0.60;;;12.70;99.90;;;;;;4917320;29;20233;-70
2023/10/23 10:20:09;;;;;;;3.20;0.70;;;12.70;99.90;;;;;;4917739;29;20232;-70
2023/10/23 10:22:39;;;;;;;3.30;0.70;;;12.90;99.90;;;;;;4917263;29;20249;-70
2023/10/23 10:25:09;;;;;;;1.80;0.63;;;12.90;99.90;;;;;;4917135;29;20244;-71
2023/10/23 10:27:36;;;;;;;2.47;0.70;;;12.80;99.90;;;;;;4916619;29;20328;-70
2023/10/23 10:30:05;;;;;;;2.63;0.70;;;12.70;99.90;;;;;;4916622;29;20249;-71
2023/10/23 10:32:33;;;;;;;3.47;0.77;;;12.70;99.90;;;;;;4917129;29;20273;-71
2023/10/23 10:35:06;;;;;;;2.13;1.00;;;12.70;99.90;;;;;;4917559;29;20210;-72
2023/10/23 10:37:33;;;;;;;3.33;0.80;;;12.70;99.90;;;;;;4917239;29;20286;-71
2023/10/23 10:40:11;;;;;;;3.93;0.90;;;12.70;99.90;;;;;;4916662;29;20237;-71
2023/10/23 10:42:42;;;;;;;2.57;0.97;;;12.70;99.90;;;;;;4916447;29;20300;-71
2023/10/23 10:45:17;;;;;;;3.03;0.87;;;13.00;99.90;;;;;;4916942;29;20328;-72
2023/10/23 10:47:49;;;;;;;2.50;0.87;;;13.00;99.90;;;;;;4916477;29;20244;-72
2023/10/23 10:53:13;;;;;;;2.63;0.73;;;13.10;99.90;;;;;;5151932;27;20544;-72
2023/10/23 10:55:40;;;;;;;2.23;0.87;;;13.30;99.90;;;;;;5151366;27;20232;-71
2023/10/23 10:58:10;;;;;;;3.30;0.70;;;13.50;99.90;;;;;;5160783;27;20255;-71
2023/10/23 11:00:38;;;;;;;4.23;0.87;;;13.70;99.90;;;;;;5172671;27;20235;-72
2023/10/23 11:03:05;;;;;;;4.43;0.90;;;13.60;99.90;;;;;;5172567;27;20712;-72
2023/10/23 11:05:33;;;;;;;2.53;0.63;;;13.60;99.90;;;;;;5172776;27;20235;-72
2023/10/23 11:08:00;;;;;;;3.90;0.90;;;13.50;99.90;;;;;;5172593;27;20303;-70
2023/10/23 11:10:29;;;;;;;2.87;0.73;;;13.70;99.90;;;;;;5172742;27;20257;-72
2023/10/23 11:12:56;;;;;;;3.53;0.83;;;13.60;99.90;;;;;;5172325;27;20270;-72
2023/10/23 11:15:22;;;;;;;1.03;0.43;;;13.70;99.90;;;;;;5172297;27;20260;-71
2023/10/23 11:17:49;;;;;;;1.87;0.60;;;13.80;99.90;;;;;;5172210;27;20640;-72
2023/10/23 11:20:17;;;;;;;2.03;0.47;;;13.90;99.90;;;;;;5172439;27;20241;-71
2023/10/23 11:22:45;;;;;;;3.00;0.70;;;13.80;99.90;;;;;;5172669;27;20246;-70
2023/10/23 11:25:13;;;;;;;3.77;0.70;;;13.80;99.90;;;;;;5171735;27;20211;-72
2023/10/23 11:27:41;;;;;;;2.60;0.80;;;13.80;99.90;;;;;;5171490;27;20310;-71
2023/10/23 11:30:09;;;;;;;2.33;0.60;;;13.80;99.90;;;;;;5171823;27;20231;-72
2023/10/23 11:32:36;;;;;;;1.17;0.57;;;13.90;99.90;;;;;;5171908;27;20269;-71
2023/10/23 11:35:05;;;;;;;4.20;0.90;;;13.90;99.90;;;;;;5172206;27;20606;-71
2023/10/23 11:37:38;;;;;;;3.00;0.70;;;13.90;99.90;;;;;;5171978;27;20220;-72
2023/10/23 11:40:07;;;;;;;2.03;0.60;;;13.80;99.90;;;;;;5171664;27;20222;-72
2023/10/23 11:42:46;;;;;;;1.73;0.77;;;13.70;99.90;;;;;;5161706;27;20238;-73
2023/10/23 11:45:15;;;;;;;3.40;1.00;;;13.70;99.90;;;;;;5151141;27;20246;-72
2023/10/23 11:47:42;;;;;;;2.63;0.60;;;13.60;99.90;;;;;;5164183;27;20318;-73
2023/10/23 11:50:12;;;;;;;3.77;0.60;;;13.70;99.90;;;;;;5169997;27;20200;-72
2023/10/23 11:52:42;;;;;;;2.03;0.80;;;13.80;99.90;;;;;;5167154;27;20724;-71
2023/10/23 11:55:10;;;;;;;1.57;0.70;;;13.70;99.90;;;;;;5170212;27;20290;-72
2023/10/23 11:57:41;;;;;;;5.60;0.87;;;13.60;99.90;;;;;;5169736;27;20230;-71
2023/10/23 12:00:12;;;;;;;2.50;0.70;;;13.50;99.90;;;;;;5169358;27;20199;-70
2023/10/23 12:02:41;;;;;;;3.67;0.87;;;13.50;99.90;;;;;;5144201;27;20204;-69
2023/10/23 12:05:11;;;;;;;1.53;0.90;;;13.50;99.90;;;;;;5156061;27;20291;-71
2023/10/23 12:07:42;;;;;;;2.13;0.70;;;13.60;99.90;;;;;;5156026;27;20224;-69
2023/10/23 12:10:10;;;;;;;2.47;0.73;;;13.60;99.90;;;;;;5155643;27;20885;-73
2023/10/23 12:12:39;;;;;;;3.93;0.70;;;13.60;99.90;;;;;;5150788;27;20280;-71
2023/10/23 12:15:07;;;;;;;4.20;0.90;;;13.50;99.90;;;;;;5155474;27;20222;-71
2023/10/23 12:17:36;;;;;;;4.87;0.90;;;13.50;99.90;;;;;;5154996;27;20738;-71
2023/10/23 12:20:07;;;;;;;2.47;1.03;;;13.70;99.90;;;;;;5155862;27;20240;-72
2023/10/23 12:22:34;;;;;;;3.57;0.93;;;13.90;99.90;;;;;;5151482;27;20208;-72
2023/10/23 12:25:04;;;;;;;2.53;0.93;;;13.70;99.90;;;;;;5156111;27;20231;-72
2023/10/23 12:27:31;;;;;;;2.93;0.70;;;13.70;99.90;;;;;;5155423;27;20309;-71
2023/10/23 12:29:58;;;;;;;1.53;0.60;;;13.70;99.90;;;;;;5155454;27;20231;-71
2023/10/23 12:32:26;;;;;;;3.33;0.63;;;13.60;99.90;;;;;;5151366;27;20665;-72
2023/10/23 12:34:57;;;;;;;2.80;0.67;;;13.50;99.90;;;;;;5155454;27;20203;-71
2023/10/23 12:37:26;;;;;;;4.13;0.97;;;13.60;99.90;;;;;;5155097;27;20204;-71
2023/10/23 12:39:53;;;;;;;2.57;0.80;;;13.70;99.90;;;;;;5144024;27;20207;-69
2023/10/23 12:42:20;;;;;;;1.67;0.80;;;13.70;99.90;;;;;;5150015;27;20300;-71
2023/10/23 12:44:47;;;;;;;1.60;1.13;;;13.70;99.90;;;;;;5152253;27;20215;-69
2023/10/23 12:47:14;;;;;;;1.50;0.90;;;13.80;99.90;;;;;;5151868;27;20235;-70
2023/10/23 12:49:40;;;;;;;2.63;0.90;;;13.70;99.90;;;;;;5155241;27;20204;-70
2023/10/23 12:52:09;;;;;;;2.60;1.10;;;13.50;99.90;;;;;;5150692;27;20230;-70
2023/10/23 12:54:36;;;;;;;5.30;0.90;;;13.70;99.90;;;;;;5156825;27;20228;-70
2023/10/23 12:57:04;;;;;;;2.07;1.10;;;13.70;99.90;;;;;;5156107;27;20235;-70
2023/10/23 12:59:30;;;;;;;3.20;0.90;;;13.90;99.90;;;;;;5156278;27;20557;-69
2023/10/23 13:01:57;;;;;;;5.17;0.90;;;13.90;99.90;;;;;;5145564;27;20236;-69
2023/10/23 13:04:24;;;;;;;1.40;0.67;;;13.80;99.90;;;;;;5135838;27;20247;-69
2023/10/23 13:06:52;;;;;;;2.43;0.60;;;14.00;99.90;;;;;;5135603;27;20236;-69
2023/10/23 13:09:20;;;;;;;3.87;0.97;;;14.10;99.90;;;;;;5135508;27;20252;-69
2023/10/23 13:11:48;;;;;;;2.80;0.90;;;14.10;99.90;;;;;;5135258;27;20252;-69
2023/10/23 13:14:15;;;;;;;3.07;0.87;;;14.20;99.90;;;;;;5138549;27;20242;-71
2023/10/23 13:16:42;;;;;;;3.43;0.80;;;14.40;99.90;;;;;;5155225;27;20291;-69
2023/10/23 13:19:09;;;;;;;4.47;0.90;;;14.30;99.90;;;;;;5155937;27;20256;-69
2023/10/23 13:21:36;;;;;;;2.80;0.70;;;14.30;99.90;;;;;;5148323;27;20236;-72
2023/10/23 13:24:04;;;;;;;1.20;0.80;;;14.00;99.90;;;;;;5135279;27;20237;-68
2023/10/23 13:26:33;;;;;;;4.93;0.80;;;13.70;99.90;;;;;;5134955;27;20288;-68
2023/10/23 13:28:59;;;;;;;2.53;0.70;;;13.80;99.90;;;;;;5134875;27;20256;-69
2023/10/23 13:31:26;;;;;;;2.43;0.80;;;13.70;99.90;;;;;;5135149;27;20236;-72
2023/10/23 13:33:53;;;;;;;4.00;1.03;;;13.70;99.90;;;;;;5134891;27;20291;-73
2023/10/23 13:36:20;;;;;;;1.60;0.63;;;13.80;99.90;;;;;;5140623;27;20196;-75
2023/10/23 13:38:48;;;;;;;1.83;0.80;;;13.80;99.90;;;;;;5155474;27;20252;-72
2023/10/23 13:41:15;;;;;;;2.43;0.63;;;13.50;99.90;;;;;;5150442;27;20205;-72
2023/10/23 13:43:43;;;;;;;2.50;0.80;;;13.50;99.90;;;;;;5134650;27;20729;-76
2023/10/23 13:46:10;;;;;;;4.20;1.00;;;13.70;99.90;;;;;;5134221;27;20232;-76
2023/10/23 13:48:37;;;;;;;1.77;0.90;;;13.80;99.90;;;;;;5134435;27;20213;-75
2023/10/23 13:51:04;;;;;;;3.43;1.00;;;13.80;99.90;;;;;;5133025;27;20216;-76
2023/10/23 13:53:32;;;;;;;5.13;1.00;;;13.90;99.90;;;;;;5134470;27;20328;-75
2023/10/23 13:55:59;;;;;;;1.63;0.80;;;14.00;99.90;;;;;;5134374;27;20201;-72
2023/10/23 13:58:26;;;;;;;2.43;0.60;;;14.00;99.90;;;;;;5134062;27;20259;-73
2023/10/23 14:00:54;;;;;;;4.20;0.97;;;14.00;99.90;;;;;;5133523;27;20236;-73
2023/10/23 14:03:21;;;;;;;1.70;0.70;;;13.90;99.90;;;;;;5134394;27;20239;-73
2023/10/23 14:05:50;;;;;;;3.80;1.07;;;14.00;99.90;;;;;;5134083;27;20287;-71
2023/10/23 14:08:17;;;;;;;3.83;0.80;;;14.00;99.90;;;;;;5133776;27;20225;-75
2023/10/23 14:10:44;;;;;;;2.40;0.87;;;14.10;99.90;;;;;;5133385;27;20224;-72
2023/10/23 14:13:11;;;;;;;3.10;1.30;;;14.00;99.90;;;;;;5133846;27;20232;-75
2023/10/23 14:15:38;;;;;;;3.83;1.00;;;14.00;99.90;;;;;;5133680;27;20201;-71
2023/10/23 14:18:07;;;;;;;4.50;0.80;;;14.00;99.90;;;;;;5134146;27;20221;-73
2023/10/23 14:20:34;;;;;;;3.77;0.90;;;14.10;99.90;;;;;;5134158;27;20242;-72
2023/10/23 14:23:01;;;;;;;5.00;1.10;;;14.20;99.90;;;;;;5133811;27;20233;-73
2023/10/23 14:25:28;;;;;;;2.63;0.87;;;14.20;99.90;;;;;;5133092;27;20207;-72
2023/10/23 14:27:55;;;;;;;4.97;1.57;;;14.30;99.90;;;;;;5131886;27;20308;-72
2023/10/23 14:30:22;;;;;;;3.10;1.13;;;14.20;99.90;;;;;;5132140;27;20208;-71
2023/10/23 14:32:49;;;;;;;3.73;1.60;;;13.90;99.90;;;;;;5132011;27;20648;-72
2023/10/23 14:35:17;;;;;;;1.37;0.80;;;13.80;99.90;;;;;;5133983;27;20201;-71
2023/10/23 14:37:44;;;;;;;3.97;0.97;;;13.70;99.90;;;;;;5133482;27;20259;-72
2023/10/23 14:40:12;;;;;;;7.47;1.67;;;13.70;99.90;;;;;;5134074;27;20232;-71
2023/10/23 14:42:39;;;;;;;3.83;1.13;;;13.70;99.90;;;;;;5133393;27;20205;-72
2023/10/23 14:45:07;;;;;;;7.13;1.20;;;13.80;99.90;;;;;;5133850;27;20235;-72
2023/10/23 14:47:34;;;;;;;5.90;1.00;;;13.70;99.90;;;;;;5132958;27;20236;-72
2023/10/23 14:50:03;;;;;;;2.57;1.30;;;13.50;99.90;;;;;;5133810;28;20197;-72
2023/10/23 14:52:32;;;;;;;6.50;1.17;;;13.50;99.90;;;;;;5133606;28;20232;-72
2023/10/23 14:55:00;;;;;;;4.40;1.47;;;13.40;99.90;;;;;;5133655;28;20201;-73
2023/10/23 14:57:27;;;;;;;3.03;0.87;;;13.50;99.90;;;;;;5133623;28;20221;-73
2023/10/23 14:59:55;;;;;;;2.43;1.00;;;13.40;99.90;;;;;;5133048;28;20533;-71
2023/10/23 15:02:22;;;;;;;1.43;1.13;;;13.30;99.90;;;;;;5133866;28;20205;-70
2023/10/23 15:04:48;;;;;;;3.60;1.00;;;13.10;99.90;;;;;;5133578;28;20201;-74
2023/10/23 15:07:15;;;;;;;3.33;1.13;;;12.80;99.90;;;;;;5133778;28;20242;-75
2023/10/23 15:09:43;;;;;;;5.00;1.30;;;12.70;99.90;;;;;;5133717;28;20240;-74
2023/10/23 15:12:11;;;;;;;4.60;1.60;;;12.60;99.90;;;;;;5133827;28;20236;-76
2023/10/23 15:14:38;;;;;;;3.23;0.80;;;12.60;99.90;;;;;;5133958;28;20197;-71
2023/10/23 15:17:05;;;;;;;3.57;1.17;;;12.60;99.90;;;;;;5133699;28;20632;-73
2023/10/23 15:19:32;;;;;;;4.93;1.30;;;12.50;99.90;;;;;;5133802;28;20229;-75
2023/10/23 15:21:58;;;;;;;2.40;1.00;;;12.50;99.90;;;;;;5133602;28;20233;-74
2023/10/23 15:24:25;;;;;;;5.33;0.90;;;12.30;99.90;;;;;;5133699;28;20232;-69
2023/10/23 15:26:54;;;;;;;2.97;0.97;;;12.30;99.90;;;;;;5133583;28;20243;-75
2023/10/23 15:29:21;;;;;;;3.57;1.13;;;12.30;99.90;;;;;;5133528;28;20259;-74
2023/10/23 15:31:48;;;;;;;2.87;1.00;;;12.30;99.90;;;;;;5133249;28;20205;-74
2023/10/23 15:34:14;;;;;;;3.73;1.40;;;12.30;99.90;;;;;;5133401;28;20773;-74
2023/10/23 15:36:41;;;;;;;3.77;1.17;;;12.30;99.90;;;;;;5133301;28;20197;-75
2023/10/23 15:39:08;;;;;;;2.60;1.10;;;12.20;99.90;;;;;;5135646;27;20252;-75
2023/10/23 15:41:35;;;;;;;7.33;1.60;;;12.20;99.90;;;;;;5136820;27;20204;-73
2023/10/23 15:44:04;;;;;;;2.70;1.20;;;12.10;99.90;;;;;;5137133;27;20278;-75
2023/10/23 15:46:31;;;;;;;4.77;1.13;;;12.10;99.90;;;;;;5137266;27;20224;-73
2023/10/23 15:48:59;;;;;;;1.90;1.20;;;12.10;99.90;;;;;;5136900;27;20260;-73
2023/10/23 15:51:25;;;;;;;3.43;1.30;;;12.10;99.90;;;;;;5137071;27;20209;-73
2023/10/23 15:53:52;;;;;;;3.77;1.20;;;12.00;99.90;;;;;;5137164;27;20260;-71
2023/10/23 15:56:19;;;;;;;4.23;1.73;;;11.90;99.90;;;;;;5136639;27;20236;-72
2023/10/23 15:58:46;;;;;;;3.07;1.20;;;11.90;99.90;;;;;;5136585;27;20714;-71
2023/10/23 16:01:14;;;;;;;1.77;1.30;;;11.90;99.90;;;;;;5137057;27;20616;-72
2023/10/23 16:03:41;;;;;;;1.87;1.30;;;11.80;99.90;;;;;;5137093;27;20236;-72
2023/10/23 16:06:08;;;;;;;4.10;1.80;;;11.90;99.90;;;;;;5136885;27;20244;-80
2023/10/23 16:08:35;;;;;;;4.20;1.90;;;11.90;99.90;;;;;;5136768;27;20691;-74
2023/10/23 16:11:03;;;;;;;2.20;1.60;;;11.90;99.90;;;;;;5136679;27;20212;-72
2023/10/23 16:13:35;;;;;;;6.10;2.53;;;11.80;99.90;;;;;;5136343;27;20256;-72
2023/10/23 16:16:02;;;;;;;5.70;2.00;;;11.80;99.90;;;;;;5136707;27;20288;-72
2023/10/23 16:18:31;;;;;;;3.97;1.60;;;11.80;99.90;;;;;;5136877;27;20253;-72
2023/10/23 16:20:58;;;;;;;4.13;1.87;;;11.80;99.90;;;;;;5136432;27;20237;-72
2023/10/23 16:23:25;;;;;;;5.30;1.40;;;11.80;99.90;;;;;;5136241;27;20281;-72
2023/10/23 16:25:55;;;;;;;7.27;2.20;;;11.80;99.90;;;;;;5136495;27;20201;-72
2023/10/23 16:28:22;;;;;;;2.90;1.50;;;11.70;99.90;;;;;;5134681;27;20645;-73
2023/10/23 16:30:49;;;;;;;5.87;1.53;;;11.80;99.90;;;;;;5155208;27;20200;-74
2023/10/23 16:33:16;;;;;;;4.43;1.90;;;11.70;99.90;;;;;;5157086;27;20310;-75
2023/10/23 16:35:44;;;;;;;3.83;1.90;;;11.60;99.90;;;;;;5156611;27;20279;-75
2023/10/23 16:38:11;;;;;;;5.07;1.83;;;11.70;99.90;;;;;;5155652;27;20258;-74
2023/10/23 16:40:38;;;;;;;5.27;2.33;;;11.80;99.90;;;;;;5135526;27;20291;-75
2023/10/23 18:11:10;;;;;;;4.07;2.33;;;11.70;99.90;;;;;;4757506;23;20742;-70
2023/10/23 18:13:37;;;;;;;5.47;2.20;;;11.60;99.90;;;;;;5053118;28;20271;-71
2023/10/23 18:16:05;;;;;;;3.57;2.20;;;11.60;99.90;;;;;;5053384;28;20208;-72
2023/10/23 18:18:33;;;;;;;6.00;3.37;;;11.70;99.90;;;;;;5053072;28;20246;-72
2023/10/23 18:21:00;;;;;;;5.27;2.07;;;11.60;99.90;;;;;;5046986;28;20255;-72
2023/10/23 18:23:28;;;;;;;4.27;2.33;;;11.60;99.90;;;;;;5035985;28;20232;-72
2023/10/23 18:25:59;;;;;;;7.03;2.80;;;11.60;99.90;;;;;;5041631;28;20196;-72
2023/10/23 18:28:28;;;;;;;6.37;2.27;;;11.60;99.90;;;;;;5049309;28;20231;-72
2023/10/23 18:30:55;;;;;;;2.80;1.83;;;11.60;99.90;;;;;;5036577;28;20233;-72
2023/10/23 18:33:23;;;;;;;4.90;2.30;;;11.60;99.90;;;;;;5045465;28;20318;-70
2023/10/23 18:35:50;;;;;;;3.30;2.00;;;11.60;99.90;;;;;;5036974;28;20211;-72
2023/10/23 18:38:17;;;;;;;3.43;2.43;;;11.60;99.90;;;;;;5042600;28;20242;-72
2023/10/23 18:40:45;;;;;;;3.00;1.90;;;11.50;99.90;;;;;;5039277;28;20286;-72
2023/10/23 18:43:12;;;;;;;4.20;2.30;;;11.60;99.90;;;;;;5052017;28;20222;-71
2023/10/23 18:45:44;;;;;;;3.23;1.97;;;11.60;99.90;;;;;;5051960;28;20638;-72
2023/10/23 18:48:11;;;;;;;2.87;1.80;;;11.60;99.90;;;;;;5052584;28;20242;-73
2023/10/23 18:50:38;;;;;;;6.83;1.90;;;11.60;99.90;;;;;;5052266;28;20227;-72
2023/10/23 18:53:05;;;;;;;5.17;2.53;;;11.50;99.90;;;;;;5052737;28;20285;-72
2023/10/23 18:55:31;;;;;;;5.43;2.30;;;11.60;99.90;;;;;;5052008;28;20236;-72
2023/10/23 18:57:58;;;;;;;3.77;1.93;;;11.60;99.90;;;;;;5038843;28;20224;-72
2023/10/23 19:00:25;;;;;;;4.20;1.97;;;11.60;99.90;;;;;;5052355;28;20212;-72
2023/10/23 19:02:54;;;;;;;4.67;2.10;;;11.60;99.90;;;;;;5052195;28;20200;-72
2023/10/23 19:05:20;;;;;;;3.53;2.27;;;11.60;99.90;;;;;;5052629;28;20228;-71
2023/10/23 19:07:49;;;;;;;4.53;2.23;;;11.70;99.90;;;;;;5052232;28;20255;-72
2023/10/23 19:10:16;;;;;;;7.40;2.87;;;11.70;99.90;;;;;;5051581;28;20236;-73
2023/10/23 19:12:43;;;;;;;4.40;2.60;;;11.80;99.90;;;;;;5051921;28;20208;-72
2023/10/23 19:15:10;;;;;;;6.90;2.57;;;11.80;99.90;;;;;;5055878;28;20326;-71
2023/10/23 19:17:37;;;;;;;5.87;2.43;;;11.70;99.90;;;;;;5056193;28;20263;-71
2023/10/23 19:20:07;;;;;;;5.97;1.83;;;11.70;99.90;;;;;;5056155;28;20240;-72
2023/10/23 19:22:35;;;;;;;4.10;1.90;;;11.70;99.90;;;;;;5055845;28;20200;-72
2023/10/23 19:25:03;;;;;;;5.50;2.47;;;11.70;99.90;;;;;;5055895;28;20266;-72
2023/10/23 19:27:30;;;;;;;24.17;6.57;;;11.70;99.90;;;;;;5055699;28;20750;-72
2023/10/23 19:29:57;;;;;;;9.63;3.97;;;11.80;99.90;;;;;;5055300;28;20615;-73
2023/10/23 19:32:24;;;;;;;9.97;2.77;;;11.90;99.90;;;;;;5055890;28;20266;-73
2023/10/23 19:34:52;;;;;;;5.57;2.27;;;11.90;99.90;;;;;;5055315;28;20263;-72
2023/10/23 19:37:21;;;;;;;6.67;2.40;;;11.80;99.90;;;;;;5055738;28;20306;-72
2023/10/23 19:39:48;;;;;;;3.70;2.07;;;11.80;99.90;;;;;;5055360;28;20231;-73
2023/10/23 19:42:18;;;;;;;5.30;2.17;;;11.90;99.90;;;;;;5055920;28;20224;-73
2023/10/23 19:44:46;;;;;;;3.87;2.50;;;11.70;99.90;;;;;;5055373;28;20210;-72
2023/10/23 19:47:13;;;;;;;5.63;2.53;;;11.80;99.90;;;;;;5055373;28;20266;-72
2023/10/23 19:49:42;;;;;;;4.33;2.10;;;11.70;99.90;;;;;;5055501;28;20231;-73
2023/10/23 19:52:12;;;;;;;4.03;2.10;;;11.80;99.90;;;;;;5055311;28;20562;-73
2023/10/23 19:54:41;;;;;;;5.77;2.63;;;11.70;99.90;;;;;;5055191;28;20318;-72
2023/10/23 19:57:09;;;;;;;2.93;2.30;;;11.70;99.90;;;;;;5055150;28;20238;-72
2023/10/23 19:59:37;;;;;;;5.77;2.27;;;11.70;99.90;;;;;;5054853;28;20216;-73
2023/10/23 20:02:04;;;;;;;4.20;2.23;;;11.70;99.90;;;;;;5055219;28;20204;-72
2023/10/23 20:04:32;;;;;;;4.17;2.57;;;11.70;99.90;;;;;;5054601;28;20646;-72
2023/10/23 20:06:59;;;;;;;4.73;2.53;;;11.60;99.90;;;;;;5054477;28;20246;-72
2023/10/23 20:09:26;;;;;;;7.13;3.13;;;11.70;99.90;;;;;;5055173;28;20204;-72
2023/10/23 20:11:54;;;;;;;8.07;4.13;;;11.90;99.90;;;;;;5055036;28;20250;-72
2023/10/23 20:14:22;;;;;;;5.40;3.00;;;12.00;99.90;;;;;;5055305;28;20313;-72
2023/10/23 20:16:49;;;;;;;4.90;2.47;;;12.20;99.90;;;;;;5054946;28;20291;-71
2023/10/23 20:19:16;;;;;;;4.23;2.63;;;12.10;99.90;;;;;;5055093;28;20231;-73
2023/10/23 20:21:43;;;;;;;4.60;2.60;;;12.00;99.90;;;;;;5054824;28;20292;-72
2023/10/23 20:24:09;;;;;;;4.00;2.23;;;11.80;99.90;;;;;;5055000;28;20243;-70
2023/10/23 20:26:38;;;;;;;4.30;2.53;;;11.80;99.90;;;;;;5054938;28;20298;-72
2023/10/23 20:29:07;;;;;;;4.17;2.43;;;11.80;99.90;;;;;;5055046;28;20224;-70
2023/10/23 20:31:34;;;;;;;6.77;3.57;;;11.80;99.90;;;;;;5054358;28;20215;-70
2023/10/23 20:34:01;;;;;;;5.23;2.83;;;11.90;99.90;;;;;;5054717;28;20278;-71
2023/10/23 20:36:28;;;;;;;2.87;1.93;;;12.00;99.90;;;;;;5054812;28;20243;-71
2023/10/23 20:38:55;;;;;;;3.27;2.00;;;12.00;99.90;;;;;;5054706;28;20247;-70
2023/10/23 20:41:22;;;;;;;5.07;2.13;;;12.00;99.90;;;;;;5054268;28;20699;-71
2023/10/23 20:43:49;;;;;;;3.30;1.80;;;11.90;99.90;;;;;;5054709;28;20308;-72
2023/10/23 20:46:17;;;;;;;2.93;1.83;;;12.00;99.90;;;;;;5054471;28;20210;-68
2023/10/23 20:48:44;;;;;;;3.53;2.10;;;12.10;99.90;;;;;;5054248;28;20623;-69
2023/10/23 20:51:11;;;;;;;4.57;2.57;;;12.10;99.90;;;;;;5054211;28;20200;-71
2023/10/23 20:53:38;;;;;;;4.83;2.80;;;12.10;99.90;;;;;;5054441;28;20253;-70
2023/10/23 20:56:07;;;;;;;7.13;2.60;;;12.20;99.90;;;;;;5054464;28;20640;-71
2023/10/23 20:58:34;;;;;;;7.70;2.70;;;12.20;99.90;;;;;;5054143;28;20311;-70
2023/10/23 21:01:05;;;;;;;5.20;3.23;;;12.20;99.90;;;;;;5054045;28;20273;-72
2023/10/23 21:03:34;;;;;;;4.03;2.43;;;12.30;99.90;;;;;;5054162;28;20300;-69
2023/10/23 21:06:01;;;;;;;5.13;2.87;;;12.30;99.90;;;;;;5054291;28;20639;-71
2023/10/23 21:08:28;;;;;;;6.33;2.50;;;12.40;99.90;;;;;;5054355;28;20228;-69
2023/10/23 21:10:55;;;;;;;5.13;2.40;;;12.50;99.90;;;;;;5054309;28;20303;-71
2023/10/23 21:13:22;;;;;;;3.97;2.43;;;12.50;99.90;;;;;;5054001;28;20239;-72
2023/10/23 21:15:49;;;;;;;5.00;2.60;;;12.40;99.90;;;;;;5053095;28;20297;-71
